createdAt,value
2017-05-09T00:00:23.831Z,19.36
2017-05-09T00:01:34.083Z,19.37
2017-05-09T00:02:44.351Z,19.39
2017-05-09T00:03:54.614Z,19.41
2017-05-09T00:05:04.873Z,19.36
2017-05-09T00:06:14.512Z,19.26
2017-05-09T00:07:24.776Z,19.31
2017-05-09T00:08:35.029Z,19.28
2017-05-09T00:09:44.692Z,19.26
2017-05-09T00:10:54.645Z,19.29
2017-05-09T00:12:04.597Z,19.31
2017-05-09T00:13:14.866Z,19.25
2017-05-09T00:14:25.124Z,19.31
2017-05-09T00:15:35.084Z,19.26
2017-05-09T00:16:45.346Z,19.29
2017-05-09T00:17:55.301Z,19.31
2017-05-09T00:19:05.565Z,19.31
2017-05-09T00:20:15.207Z,19.23
2017-05-09T00:21:24.833Z,19.29
2017-05-09T00:22:35.092Z,19.33
2017-05-09T00:23:44.732Z,19.29
2017-05-09T00:24:54.685Z,19.31
2017-05-09T00:26:04.332Z,19.22
2017-05-09T00:27:13.663Z,19.25
2017-05-09T00:28:23.921Z,19.29
2017-05-09T00:29:33.867Z,19.29
2017-05-09T00:30:43.810Z,19.25
2017-05-09T00:31:54.061Z,19.23
2017-05-09T00:33:04.323Z,19.25
2017-05-09T00:34:14.266Z,19.36
2017-05-09T00:35:24.573Z,19.25
2017-05-09T00:36:34.214Z,19.36
2017-05-09T00:37:44.469Z,19.26
2017-05-09T00:38:54.427Z,19.22
2017-05-09T00:40:04.688Z,19.26
2017-05-09T00:41:14.947Z,19.21
2017-05-09T00:42:25.214Z,19.33
2017-05-09T00:43:35.472Z,19.22
2017-05-09T00:44:45.733Z,19.23
2017-05-09T00:45:55.683Z,19.23
2017-05-09T00:47:05.647Z,19.23
2017-05-09T00:48:15.596Z,19.18
2017-05-09T00:49:25.542Z,19.19
2017-05-09T00:50:35.812Z,19.21
2017-05-09T00:51:46.072Z,19.18
2017-05-09T00:52:55.703Z,19.19
2017-05-09T00:54:05.658Z,19.22
2017-05-09T00:55:15.294Z,19.18
2017-05-09T00:56:25.558Z,19.19
2017-05-09T00:57:35.840Z,19.21
2017-05-09T00:58:45.788Z,19.23
2017-05-09T00:59:56.042Z,19.22
2017-05-09T01:01:06.331Z,19.16
2017-05-09T01:02:16.315Z,19.23
2017-05-09T01:03:26.580Z,19.22
2017-05-09T01:04:36.842Z,19.26
2017-05-09T01:05:47.103Z,19.16
2017-05-09T01:06:57.042Z,19.18
2017-05-09T01:08:07.297Z,19.16
2017-05-09T01:09:17.249Z,19.26
2017-05-09T01:10:27.196Z,19.23
2017-05-09T01:11:37.458Z,19.21
2017-05-09T01:12:47.409Z,19.25
2017-05-09T01:13:57.673Z,19.18
2017-05-09T01:15:07.621Z,19.22
2017-05-09T01:16:17.877Z,19.21
2017-05-09T01:17:27.818Z,19.22
2017-05-09T01:18:37.771Z,19.18
2017-05-09T01:19:47.717Z,19.21
2017-05-09T01:20:57.344Z,19.19
2017-05-09T01:22:07.603Z,19.23
2017-05-09T01:23:17.550Z,19.19
2017-05-09T01:24:27.501Z,19.16
2017-05-09T01:25:37.760Z,19.18
2017-05-09T01:26:47.740Z,19.18
2017-05-09T01:27:57.692Z,19.23
2017-05-09T01:29:07.949Z,19.21
2017-05-09T01:30:17.897Z,19.16
2017-05-09T01:31:27.539Z,19.19
2017-05-09T01:32:37.801Z,19.16
2017-05-09T01:33:47.450Z,19.22
2017-05-09T01:34:57.391Z,19.21
2017-05-09T01:36:07.652Z,19.21
2017-05-09T01:37:17.279Z,19.25
2017-05-09T01:38:27.232Z,19.21
2017-05-09T01:39:37.193Z,19.19
2017-05-09T01:40:47.144Z,19.22
2017-05-09T01:41:57.091Z,19.21
2017-05-09T01:43:07.355Z,19.23
2017-05-09T01:44:17.656Z,19.16
2017-05-09T01:45:27.602Z,19.23
2017-05-09T01:46:37.228Z,19.26
2017-05-09T01:47:46.858Z,19.19
2017-05-09T01:48:56.807Z,19.22
2017-05-09T01:50:07.067Z,19.22
2017-05-09T01:51:17.009Z,19.19
2017-05-09T01:52:27.271Z,19.13
2017-05-09T01:53:37.235Z,19.23
2017-05-09T01:54:47.501Z,19.19
2017-05-09T01:55:57.452Z,19.18
2017-05-09T01:57:07.712Z,19.22
2017-05-09T01:58:17.654Z,19.19
2017-05-09T01:59:27.303Z,19.22
2017-05-09T02:00:37.561Z,19.19
2017-05-09T02:01:47.814Z,19.19
2017-05-09T02:02:57.756Z,19.22
2017-05-09T02:04:08.019Z,19.18
2017-05-09T02:05:17.647Z,19.18
2017-05-09T02:06:27.911Z,19.23
2017-05-09T02:07:37.874Z,19.23
2017-05-09T02:08:48.142Z,19.21
2017-05-09T02:09:58.403Z,19.16
2017-05-09T02:11:08.669Z,19.16
2017-05-09T02:12:18.932Z,19.23
2017-05-09T02:13:29.197Z,19.21
2017-05-09T02:14:39.457Z,19.19
2017-05-09T02:15:49.409Z,19.14
2017-05-09T02:16:59.358Z,19.14
2017-05-09T02:18:09.619Z,19.22
2017-05-09T02:19:19.875Z,19.21
2017-05-09T02:20:29.827Z,19.14
2017-05-09T02:21:40.090Z,19.13
2017-05-09T02:22:50.347Z,19.14
2017-05-09T02:24:00.612Z,19.14
2017-05-09T02:25:10.560Z,19.22
2017-05-09T02:26:20.501Z,19.25
2017-05-09T02:27:30.452Z,19.18
2017-05-09T02:28:40.716Z,19.14
2017-05-09T02:29:50.982Z,19.19
2017-05-09T02:31:00.930Z,19.18
2017-05-09T02:32:10.882Z,19.16
2017-05-09T02:33:20.516Z,19.14
2017-05-09T02:34:30.775Z,19.18
2017-05-09T02:35:40.720Z,19.18
2017-05-09T02:36:50.999Z,19.1
2017-05-09T02:38:00.946Z,19.19
2017-05-09T02:39:10.889Z,19.19
2017-05-09T02:40:20.844Z,19.11
2017-05-09T02:41:31.103Z,19.19
2017-05-09T02:42:41.046Z,19.11
2017-05-09T02:43:51.000Z,19.1
2017-05-09T02:45:01.263Z,19.16
2017-05-09T02:46:11.520Z,19.16
2017-05-09T02:47:21.786Z,19.04
2017-05-09T02:48:32.051Z,19.19
2017-05-09T02:49:42.306Z,19.16
2017-05-09T02:50:52.263Z,19.08
2017-05-09T02:52:02.226Z,19.07
2017-05-09T02:53:12.176Z,19.07
2017-05-09T02:54:21.804Z,19.16
2017-05-09T02:55:32.065Z,19.07
2017-05-09T02:56:41.705Z,19.11
2017-05-09T02:57:51.343Z,19.16
2017-05-09T02:59:01.604Z,19.13
2017-05-09T03:00:11.238Z,19.13
2017-05-09T03:01:21.501Z,19.14
2017-05-09T03:02:31.759Z,19.13
2017-05-09T03:03:42.017Z,19.1
2017-05-09T03:04:52.279Z,19.11
2017-05-09T03:06:02.553Z,19.13
2017-05-09T03:07:12.500Z,19.19
2017-05-09T03:08:22.756Z,19.14
2017-05-09T03:09:33.018Z,19.23
2017-05-09T03:10:42.970Z,19.23
2017-05-09T03:11:53.257Z,19.14
2017-05-09T03:13:03.208Z,19.23
2017-05-09T03:14:13.472Z,19.14
2017-05-09T03:15:23.415Z,19.23
2017-05-09T03:16:33.039Z,19.25
2017-05-09T03:17:43.317Z,19.22
2017-05-09T03:18:52.947Z,19.25
2017-05-09T03:20:03.219Z,19.16
2017-05-09T03:21:12.854Z,19.21
2017-05-09T03:22:22.797Z,19.21
2017-05-09T03:23:33.059Z,19.14
2017-05-09T03:24:43.012Z,19.18
2017-05-09T03:25:53.280Z,19.19
2017-05-09T03:27:03.542Z,19.23
2017-05-09T03:28:13.517Z,19.18
2017-05-09T03:29:23.481Z,19.22
2017-05-09T03:30:33.734Z,19.22
2017-05-09T03:31:43.682Z,19.13
2017-05-09T03:32:53.948Z,19.23
2017-05-09T03:34:03.907Z,19.26
2017-05-09T03:35:14.170Z,19.23
2017-05-09T03:36:24.114Z,19.18
2017-05-09T03:37:34.057Z,19.21
2017-05-09T03:38:44.317Z,19.25
2017-05-09T03:39:54.585Z,19.21
2017-05-09T03:41:04.854Z,19.14
2017-05-09T03:42:14.826Z,19.11
2017-05-09T03:43:24.822Z,19.16
2017-05-09T03:44:35.081Z,19.13
2017-05-09T03:45:45.041Z,19.25
2017-05-09T03:46:54.987Z,19.25
2017-05-09T03:48:04.936Z,19.21
2017-05-09T03:49:15.198Z,19.16
2017-05-09T03:50:25.456Z,19.07
2017-05-09T03:51:35.720Z,19.13
2017-05-09T03:52:45.673Z,19.11
2017-05-09T03:53:55.941Z,19.19
2017-05-09T03:55:06.219Z,19.22
2017-05-09T03:56:15.218Z,19.25
2017-05-09T03:57:24.534Z,19.18
2017-05-09T03:58:34.170Z,19.23
2017-05-09T03:59:44.461Z,19.26
2017-05-09T04:00:54.413Z,19.22
2017-05-09T04:02:04.049Z,19.26
2017-05-09T04:03:13.995Z,19.22
2017-05-09T04:04:24.259Z,19.23
2017-05-09T04:05:34.519Z,19.22
2017-05-09T04:06:44.784Z,19.25
2017-05-09T04:07:54.729Z,19.21
2017-05-09T04:09:04.685Z,19.22
2017-05-09T04:10:14.949Z,19.26
2017-05-09T04:11:24.896Z,19.18
2017-05-09T04:12:34.851Z,19.31
2017-05-09T04:13:45.108Z,19.28
2017-05-09T04:14:55.376Z,19.31
2017-05-09T04:16:05.320Z,19.36
2017-05-09T04:17:15.578Z,19.36
2017-05-09T04:18:25.523Z,19.32
2017-05-09T04:19:35.789Z,19.31
2017-05-09T04:20:45.742Z,19.33
2017-05-09T04:21:56.004Z,19.31
2017-05-09T04:23:05.325Z,19.32
2017-05-09T04:24:15.272Z,19.31
2017-05-09T04:25:25.536Z,19.32
2017-05-09T04:26:35.808Z,19.26
2017-05-09T04:27:45.445Z,19.32
2017-05-09T04:28:55.703Z,19.32
2017-05-09T04:30:05.958Z,19.39
2017-05-09T04:31:15.906Z,19.31
2017-05-09T04:32:25.851Z,19.36
2017-05-09T04:33:36.122Z,19.36
2017-05-09T04:34:45.793Z,19.29
2017-05-09T04:35:56.054Z,19.26
2017-05-09T04:37:05.678Z,19.31
2017-05-09T04:38:15.659Z,19.22
2017-05-09T04:39:25.607Z,19.31
2017-05-09T04:40:35.877Z,19.26
2017-05-09T04:41:45.199Z,19.25
2017-05-09T04:42:54.837Z,19.25
2017-05-09T04:44:04.783Z,19.23
2017-05-09T04:45:14.727Z,19.33
2017-05-09T04:46:24.984Z,19.28
2017-05-09T04:47:34.635Z,19.25
2017-05-09T04:48:44.907Z,19.22
2017-05-09T04:49:55.165Z,19.31
2017-05-09T04:51:05.430Z,19.26
2017-05-09T04:52:15.693Z,19.33
2017-05-09T04:53:25.644Z,19.25
2017-05-09T04:54:35.591Z,19.26
2017-05-09T04:55:45.541Z,19.21
2017-05-09T04:56:55.804Z,19.22
2017-05-09T04:58:05.749Z,19.21
2017-05-09T04:59:16.010Z,19.23
2017-05-09T05:00:25.954Z,19.26
2017-05-09T05:01:36.211Z,19.26
2017-05-09T05:02:46.466Z,19.22
2017-05-09T05:03:56.413Z,19.29
2017-05-09T05:05:06.370Z,19.26
2017-05-09T05:06:16.636Z,19.25
2017-05-09T05:07:26.895Z,19.23
2017-05-09T05:08:37.149Z,19.31
2017-05-09T05:09:47.414Z,19.25
2017-05-09T05:10:57.680Z,19.22
2017-05-09T05:12:07.629Z,19.22
2017-05-09T05:13:17.581Z,19.22
2017-05-09T05:14:27.529Z,19.36
2017-05-09T05:15:37.167Z,19.28
2017-05-09T05:16:46.491Z,19.23
2017-05-09T05:17:56.759Z,19.32
2017-05-09T05:19:07.023Z,19.25
2017-05-09T05:20:16.967Z,19.29
2017-05-09T05:21:26.920Z,19.25
2017-05-09T05:22:37.181Z,19.26
2017-05-09T05:23:47.434Z,19.25
2017-05-09T05:24:57.387Z,19.22
2017-05-09T05:26:07.030Z,19.28
2017-05-09T05:27:16.658Z,19.29
2017-05-09T05:28:26.922Z,19.25
2017-05-09T05:29:37.181Z,19.32
2017-05-09T05:30:47.119Z,19.28
2017-05-09T05:31:57.387Z,19.28
2017-05-09T05:33:07.336Z,19.32
2017-05-09T05:34:17.298Z,19.31
2017-05-09T05:35:26.925Z,19.28
2017-05-09T05:36:37.182Z,19.29
2017-05-09T05:37:47.130Z,19.33
2017-05-09T05:38:56.775Z,19.31
2017-05-09T05:40:06.723Z,19.28
2017-05-09T05:41:16.673Z,19.29
2017-05-09T05:42:26.940Z,19.29
2017-05-09T05:43:37.199Z,19.29
2017-05-09T05:44:47.137Z,19.29
2017-05-09T05:45:57.399Z,19.23
2017-05-09T05:47:07.669Z,19.33
2017-05-09T05:48:17.615Z,19.33
2017-05-09T05:49:27.569Z,19.29
2017-05-09T05:50:37.516Z,19.33
2017-05-09T05:51:46.833Z,19.28
2017-05-09T05:52:57.093Z,19.28
2017-05-09T05:54:07.040Z,19.32
2017-05-09T05:55:16.987Z,19.29
2017-05-09T05:56:26.632Z,19.31
2017-05-09T05:57:36.896Z,19.32
2017-05-09T05:58:46.851Z,19.29
2017-05-09T05:59:56.805Z,19.29
2017-05-09T06:01:07.068Z,19.29
2017-05-09T06:02:17.361Z,19.31
2017-05-09T06:03:27.626Z,19.31
2017-05-09T06:04:37.573Z,19.29
2017-05-09T06:05:47.201Z,19.29
2017-05-09T06:06:57.150Z,19.28
2017-05-09T06:08:07.420Z,19.28
2017-05-09T06:09:17.373Z,19.25
2017-05-09T06:10:27.630Z,19.29
2017-05-09T06:11:37.903Z,19.31
2017-05-09T06:12:48.172Z,19.26
2017-05-09T06:13:58.441Z,19.31
2017-05-09T06:15:08.698Z,19.31
2017-05-09T06:16:18.639Z,19.32
2017-05-09T06:17:28.582Z,19.29
2017-05-09T06:18:38.848Z,19.29
2017-05-09T06:19:48.483Z,19.33
2017-05-09T06:20:58.749Z,19.29
2017-05-09T06:22:08.698Z,19.31
2017-05-09T06:23:18.653Z,19.31
2017-05-09T06:24:28.609Z,19.26
2017-05-09T06:25:38.868Z,19.39
2017-05-09T06:26:49.127Z,19.4
2017-05-09T06:27:59.078Z,19.33
2017-05-09T06:29:09.336Z,19.29
2017-05-09T06:30:19.599Z,19.29
2017-05-09T06:31:29.893Z,19.33
2017-05-09T06:32:40.154Z,19.31
2017-05-09T06:33:50.118Z,19.31
2017-05-09T06:35:00.063Z,19.26
2017-05-09T06:36:09.692Z,19.29
2017-05-09T06:37:19.636Z,19.28
2017-05-09T06:38:29.586Z,19.29
2017-05-09T06:39:39.847Z,19.29
2017-05-09T06:40:50.110Z,19.29
2017-05-09T06:42:00.061Z,19.25
2017-05-09T06:43:10.059Z,19.25
2017-05-09T06:44:20.013Z,19.28
2017-05-09T06:45:30.277Z,19.31
2017-05-09T06:46:40.223Z,19.33
2017-05-09T06:47:50.170Z,19.26
2017-05-09T06:49:00.116Z,19.31
2017-05-09T06:50:10.384Z,19.33
2017-05-09T06:51:20.323Z,19.26
2017-05-09T06:52:30.582Z,19.32
2017-05-09T06:53:40.851Z,19.33
2017-05-09T06:54:51.114Z,19.29
2017-05-09T06:56:01.065Z,19.25
2017-05-09T06:57:11.014Z,19.23
2017-05-09T06:58:21.276Z,19.25
2017-05-09T06:59:31.543Z,19.25
2017-05-09T07:00:41.797Z,19.29
2017-05-09T07:01:52.053Z,19.32
2017-05-09T07:03:02.008Z,19.33
2017-05-09T07:04:11.965Z,19.26
2017-05-09T07:05:22.236Z,19.29
2017-05-09T07:06:32.484Z,19.33
2017-05-09T07:07:42.115Z,19.32
2017-05-09T07:08:52.388Z,19.4
2017-05-09T07:10:02.335Z,19.36
2017-05-09T07:11:11.977Z,19.4
2017-05-09T07:12:22.240Z,19.36
2017-05-09T07:13:32.499Z,19.32
2017-05-09T07:14:42.134Z,19.4
2017-05-09T07:15:52.396Z,19.43
2017-05-09T07:17:02.349Z,19.33
2017-05-09T07:18:12.305Z,19.41
2017-05-09T07:19:22.570Z,19.33
2017-05-09T07:20:32.209Z,19.39
2017-05-09T07:21:42.164Z,19.37
2017-05-09T07:22:52.427Z,19.36
2017-05-09T07:24:02.379Z,19.43
2017-05-09T07:25:12.640Z,19.4
2017-05-09T07:26:22.899Z,19.44
2017-05-09T07:27:32.849Z,19.41
2017-05-09T07:28:42.479Z,19.47
2017-05-09T07:29:52.423Z,19.59
2017-05-09T07:31:02.906Z,19.58
2017-05-09T07:32:13.169Z,19.63
2017-05-09T07:33:22.838Z,19.63
2017-05-09T07:34:32.792Z,19.73
2017-05-09T07:35:43.057Z,19.73
2017-05-09T07:36:53.328Z,19.8
2017-05-09T07:38:03.273Z,19.91
2017-05-09T07:39:13.219Z,19.87
2017-05-09T07:40:23.486Z,19.91
2017-05-09T07:41:33.151Z,19.87
2017-05-09T07:42:43.093Z,19.84
2017-05-09T07:43:53.355Z,19.98
2017-05-09T07:45:03.306Z,19.94
2017-05-09T07:46:12.615Z,19.88
2017-05-09T07:47:22.565Z,19.76
2017-05-09T07:48:32.528Z,19.74
2017-05-09T07:49:42.791Z,19.61
2017-05-09T07:50:53.055Z,19.59
2017-05-09T07:52:02.686Z,19.62
2017-05-09T07:53:12.632Z,19.39
2017-05-09T07:54:22.573Z,19.39
2017-05-09T07:55:32.520Z,19.41
2017-05-09T07:56:42.788Z,19.46
2017-05-09T07:57:53.052Z,19.51
2017-05-09T07:59:03.324Z,19.54
2017-05-09T08:00:13.266Z,19.58
2017-05-09T08:01:22.891Z,19.55
2017-05-09T08:02:32.524Z,19.5
2017-05-09T08:03:42.786Z,19.54
2017-05-09T08:04:52.742Z,19.55
2017-05-09T08:06:02.690Z,19.58
2017-05-09T08:07:12.972Z,19.62
2017-05-09T08:08:22.918Z,19.69
2017-05-09T08:09:33.182Z,19.69
2017-05-09T08:10:43.445Z,19.71
2017-05-09T08:11:53.394Z,19.59
2017-05-09T08:13:03.345Z,19.66
2017-05-09T08:14:13.292Z,19.63
2017-05-09T08:15:23.554Z,19.71
2017-05-09T08:16:33.492Z,19.61
2017-05-09T08:17:43.748Z,19.66
2017-05-09T08:18:54.014Z,19.62
2017-05-09T08:20:04.317Z,19.71
2017-05-09T08:21:14.268Z,19.71
2017-05-09T08:22:24.413Z,19.71
2017-05-09T08:23:34.707Z,19.69
2017-05-09T08:24:44.664Z,19.68
2017-05-09T08:25:54.605Z,19.65
2017-05-09T08:27:04.556Z,19.68
2017-05-09T08:28:14.498Z,19.76
2017-05-09T08:29:24.447Z,19.62
2017-05-09T08:30:34.720Z,19.59
2017-05-09T08:31:44.675Z,19.63
2017-05-09T08:32:54.942Z,19.61
2017-05-09T08:34:04.883Z,19.69
2017-05-09T08:35:14.515Z,19.59
2017-05-09T08:36:24.774Z,19.61
2017-05-09T08:37:34.716Z,19.59
2017-05-09T08:38:44.673Z,19.63
2017-05-09T08:39:54.640Z,19.59
2017-05-09T08:41:04.272Z,19.61
2017-05-09T08:42:14.219Z,19.56
2017-05-09T08:43:24.165Z,19.56
2017-05-09T08:44:33.802Z,19.65
2017-05-09T08:45:44.057Z,19.5
2017-05-09T08:46:53.689Z,19.65
2017-05-09T08:48:03.645Z,19.62
2017-05-09T08:49:13.593Z,19.54
2017-05-09T08:50:23.535Z,19.63
2017-05-09T08:51:33.481Z,19.62
2017-05-09T08:52:43.757Z,19.54
2017-05-09T08:53:54.040Z,19.5
2017-05-09T08:55:04.034Z,19.51
2017-05-09T08:56:13.975Z,19.58
2017-05-09T08:57:23.917Z,19.63
2017-05-09T08:58:34.189Z,19.63
2017-05-09T08:59:44.443Z,19.68
2017-05-09T09:00:54.390Z,19.69
2017-05-09T09:02:04.646Z,19.61
2017-05-09T09:03:14.288Z,19.69
2017-05-09T09:04:24.554Z,19.68
2017-05-09T09:05:34.510Z,19.71
2017-05-09T09:06:44.773Z,19.69
2017-05-09T09:07:54.725Z,19.81
2017-05-09T09:09:04.678Z,19.76
2017-05-09T09:10:14.622Z,19.83
2017-05-09T09:11:24.572Z,19.8
2017-05-09T09:12:34.522Z,19.74
2017-05-09T09:13:44.787Z,19.78
2017-05-09T09:14:55.056Z,19.66
2017-05-09T09:16:05.010Z,19.68
2017-05-09T09:17:14.635Z,19.76
2017-05-09T09:18:24.578Z,19.61
2017-05-09T09:19:34.538Z,19.61
2017-05-09T09:20:44.804Z,19.63
2017-05-09T09:21:54.751Z,19.73
2017-05-09T09:23:04.709Z,19.68
2017-05-09T09:24:14.977Z,19.63
2017-05-09T09:25:25.239Z,19.71
2017-05-09T09:26:35.184Z,19.61
2017-05-09T09:27:45.437Z,19.69
2017-05-09T09:28:55.386Z,19.66
2017-05-09T09:30:05.016Z,19.62
2017-05-09T09:31:14.643Z,19.63
2017-05-09T09:32:24.276Z,19.62
2017-05-09T09:33:34.533Z,19.68
2017-05-09T09:34:44.793Z,19.66
2017-05-09T09:35:54.738Z,19.62
2017-05-09T09:37:04.375Z,19.59
2017-05-09T09:38:14.045Z,19.59
2017-05-09T09:39:24.306Z,19.61
2017-05-09T09:40:34.252Z,19.62
2017-05-09T09:41:44.518Z,19.69
2017-05-09T09:42:54.159Z,19.71
2017-05-09T09:44:04.105Z,19.61
2017-05-09T09:45:14.366Z,19.68
2017-05-09T09:46:24.316Z,19.68
2017-05-09T09:47:34.576Z,19.68
2017-05-09T09:48:44.834Z,19.58
2017-05-09T09:49:55.091Z,19.68
2017-05-09T09:51:05.041Z,19.71
2017-05-09T09:52:14.982Z,19.62
2017-05-09T09:53:25.244Z,19.73
2017-05-09T09:54:35.196Z,19.73
2017-05-09T09:55:45.462Z,19.74
2017-05-09T09:56:55.726Z,19.68
2017-05-09T09:58:05.992Z,19.74
2017-05-09T09:59:15.942Z,19.81
2017-05-09T10:00:26.207Z,19.76
2017-05-09T10:01:36.467Z,19.78
2017-05-09T10:02:46.725Z,19.66
2017-05-09T10:03:56.998Z,19.69
2017-05-09T10:05:06.955Z,19.66
2017-05-09T10:06:16.935Z,19.76
2017-05-09T10:07:26.874Z,19.65
2017-05-09T10:08:37.136Z,19.73
2017-05-09T10:09:47.429Z,19.69
2017-05-09T10:10:57.692Z,19.59
2017-05-09T10:12:07.325Z,19.61
2017-05-09T10:13:17.263Z,19.66
2017-05-09T10:14:27.216Z,19.62
2017-05-09T10:15:37.167Z,19.58
2017-05-09T10:16:47.121Z,19.65
2017-05-09T10:17:57.387Z,19.63
2017-05-09T10:19:07.340Z,19.65
2017-05-09T10:20:17.338Z,19.59
2017-05-09T10:21:27.606Z,19.66
2017-05-09T10:22:37.874Z,19.66
2017-05-09T10:23:47.821Z,19.63
2017-05-09T10:24:58.083Z,19.61
2017-05-09T10:26:08.064Z,19.62
2017-05-09T10:27:17.717Z,19.59
2017-05-09T10:28:27.980Z,19.54
2017-05-09T10:29:37.933Z,19.61
2017-05-09T10:30:48.192Z,19.56
2017-05-09T10:31:58.140Z,19.65
2017-05-09T10:33:08.108Z,19.58
2017-05-09T10:34:17.745Z,19.61
2017-05-09T10:35:28.007Z,19.62
2017-05-09T10:36:38.301Z,19.62
2017-05-09T10:37:48.258Z,19.68
2017-05-09T10:38:58.512Z,19.63
2017-05-09T10:40:08.465Z,19.56
2017-05-09T10:41:18.723Z,19.63
2017-05-09T10:42:28.974Z,19.62
2017-05-09T10:43:38.921Z,19.61
2017-05-09T10:44:48.867Z,19.54
2017-05-09T10:45:58.816Z,19.58
2017-05-09T10:47:09.075Z,19.63
2017-05-09T10:48:19.057Z,19.61
2017-05-09T10:49:29.002Z,19.55
2017-05-09T10:50:38.641Z,19.48
2017-05-09T10:51:48.593Z,19.55
2017-05-09T10:52:58.856Z,19.56
2017-05-09T10:54:08.491Z,19.51
2017-05-09T10:55:18.119Z,19.58
2017-05-09T10:56:28.065Z,19.56
2017-05-09T10:57:38.014Z,19.5
2017-05-09T10:58:48.279Z,19.54
2017-05-09T10:59:57.911Z,19.61
2017-05-09T11:01:07.864Z,19.59
2017-05-09T11:02:18.131Z,19.55
2017-05-09T11:03:28.090Z,19.58
2017-05-09T11:04:38.356Z,19.63
2017-05-09T11:05:48.621Z,19.59
2017-05-09T11:06:58.880Z,19.59
2017-05-09T11:08:09.147Z,19.54
2017-05-09T11:09:19.120Z,19.59
2017-05-09T11:10:29.374Z,19.51
2017-05-09T11:11:39.005Z,19.5
2017-05-09T11:12:49.261Z,19.59
2017-05-09T11:13:58.898Z,19.59
2017-05-09T11:15:08.529Z,19.66
2017-05-09T11:16:18.825Z,19.51
2017-05-09T11:17:29.082Z,19.55
2017-05-09T11:18:39.032Z,19.58
2017-05-09T11:19:49.299Z,19.58
2017-05-09T11:20:59.566Z,19.51
2017-05-09T11:22:09.833Z,19.59
2017-05-09T11:23:19.779Z,19.62
2017-05-09T11:24:30.038Z,19.56
2017-05-09T11:25:40.297Z,19.54
2017-05-09T11:26:50.562Z,19.58
2017-05-09T11:28:00.819Z,19.59
2017-05-09T11:29:10.456Z,19.59
2017-05-09T11:30:20.404Z,19.55
2017-05-09T11:31:30.355Z,19.61
2017-05-09T11:32:40.302Z,19.56
2017-05-09T11:33:50.574Z,19.56
2017-05-09T11:35:00.838Z,19.55
2017-05-09T11:36:10.471Z,19.5
2017-05-09T11:37:20.415Z,19.46
2017-05-09T11:38:30.373Z,19.41
2017-05-09T11:39:40.323Z,19.41
2017-05-09T11:40:50.587Z,19.46
2017-05-09T11:42:00.527Z,19.4
2017-05-09T11:43:10.159Z,19.4
2017-05-09T11:44:20.099Z,19.44
2017-05-09T11:45:30.043Z,19.47
2017-05-09T11:46:39.988Z,19.44
2017-05-09T11:47:49.934Z,19.61
2017-05-09T11:48:59.567Z,19.68
2017-05-09T11:50:09.840Z,19.65
2017-05-09T11:51:19.788Z,19.63
2017-05-09T11:52:30.053Z,19.58
2017-05-09T11:53:39.997Z,19.59
2017-05-09T11:54:49.944Z,19.68
2017-05-09T11:56:00.210Z,19.68
2017-05-09T11:57:10.359Z,19.68
2017-05-09T11:58:20.626Z,19.69
2017-05-09T11:59:30.893Z,19.71
2017-05-09T12:00:40.849Z,19.66
2017-05-09T12:01:51.120Z,19.73
2017-05-09T12:03:01.102Z,19.73
2017-05-09T12:04:11.375Z,19.8
2017-05-09T12:05:21.323Z,19.81
2017-05-09T12:06:31.581Z,19.83
2017-05-09T12:07:41.850Z,19.78
2017-05-09T12:08:52.117Z,19.78
2017-05-09T12:10:02.066Z,19.8
2017-05-09T12:11:12.009Z,19.83
2017-05-09T12:12:21.954Z,19.77
2017-05-09T12:13:31.898Z,19.78
2017-05-09T12:14:42.164Z,19.8
2017-05-09T12:15:52.416Z,19.78
2017-05-09T12:17:02.677Z,19.81
2017-05-09T12:18:12.620Z,19.83
2017-05-09T12:19:22.564Z,19.87
2017-05-09T12:20:32.511Z,19.91
2017-05-09T12:21:42.457Z,19.84
2017-05-09T12:22:52.729Z,19.88
2017-05-09T12:24:02.996Z,19.86
2017-05-09T12:25:12.627Z,19.84
2017-05-09T12:26:22.891Z,19.87
2017-05-09T12:27:32.831Z,19.92
2017-05-09T12:28:42.459Z,19.95
2017-05-09T12:29:52.720Z,19.94
2017-05-09T12:31:02.671Z,19.88
2017-05-09T12:32:12.933Z,19.94
2017-05-09T12:33:23.204Z,19.95
2017-05-09T12:34:33.467Z,19.98
2017-05-09T12:35:43.424Z,19.95
2017-05-09T12:36:53.063Z,20.01
2017-05-09T12:38:03.321Z,19.94
2017-05-09T12:39:12.950Z,19.98
2017-05-09T12:40:23.229Z,19.92
2017-05-09T12:41:33.183Z,19.96
2017-05-09T12:42:43.447Z,19.94
2017-05-09T12:43:53.394Z,19.95
2017-05-09T12:45:03.648Z,19.98
2017-05-09T12:46:13.593Z,20.02
2017-05-09T12:47:23.880Z,19.96
2017-05-09T12:48:32.885Z,19.98
2017-05-09T12:49:42.831Z,19.98
2017-05-09T12:50:52.781Z,19.95
2017-05-09T12:52:03.039Z,19.94
2017-05-09T12:53:12.665Z,20.01
2017-05-09T12:54:22.954Z,19.99
2017-05-09T12:55:33.217Z,19.98
2017-05-09T12:56:42.853Z,19.95
2017-05-09T12:57:52.827Z,20.02
2017-05-09T12:59:03.087Z,19.96
2017-05-09T13:00:13.345Z,19.95
2017-05-09T13:01:23.288Z,19.96
2017-05-09T13:02:33.237Z,20.03
2017-05-09T13:03:42.866Z,20.01
2017-05-09T13:04:52.809Z,20.02
2017-05-09T13:06:02.762Z,19.96
2017-05-09T13:07:13.017Z,19.98
2017-05-09T13:08:22.966Z,19.96
2017-05-09T13:09:33.231Z,19.94
2017-05-09T13:10:43.175Z,19.95
2017-05-09T13:11:53.122Z,20.03
2017-05-09T13:13:03.383Z,19.92
2017-05-09T13:14:13.650Z,19.94
2017-05-09T13:15:23.918Z,19.95
2017-05-09T13:16:34.178Z,19.98
2017-05-09T13:17:44.433Z,19.92
2017-05-09T13:18:54.380Z,19.95
2017-05-09T13:20:04.666Z,19.92
2017-05-09T13:21:14.932Z,19.94
2017-05-09T13:22:24.252Z,19.94
2017-05-09T13:23:34.196Z,19.96
2017-05-09T13:24:44.144Z,19.95
2017-05-09T13:25:54.410Z,19.94
2017-05-09T13:27:04.363Z,19.99
2017-05-09T13:28:14.622Z,19.95
2017-05-09T13:29:24.893Z,19.96
2017-05-09T13:30:34.838Z,19.95
2017-05-09T13:31:45.095Z,19.99
2017-05-09T13:32:55.039Z,19.95
2017-05-09T13:34:04.989Z,19.98
2017-05-09T13:35:15.248Z,19.96
2017-05-09T13:36:25.198Z,19.98
2017-05-09T13:37:34.832Z,19.96
2017-05-09T13:38:45.095Z,19.94
2017-05-09T13:39:55.398Z,20.01
2017-05-09T13:41:05.349Z,20.05
2017-05-09T13:42:15.644Z,20.05
2017-05-09T13:43:25.907Z,20.1
2017-05-09T13:44:35.857Z,20.05
2017-05-09T13:45:46.116Z,20.08
2017-05-09T13:46:55.746Z,20.03
2017-05-09T13:48:05.695Z,20.17
2017-05-09T13:49:15.651Z,20.17
2017-05-09T13:50:25.598Z,20.17
2017-05-09T13:51:35.864Z,20.17
2017-05-09T13:52:45.809Z,20.1
2017-05-09T13:53:55.767Z,20.16
2017-05-09T13:55:06.023Z,20.17
2017-05-09T13:56:15.982Z,20.18
2017-05-09T13:57:26.252Z,20.17
2017-05-09T13:58:36.505Z,20.16
2017-05-09T13:59:45.826Z,20.18
2017-05-09T14:00:55.778Z,20.17
2017-05-09T14:02:06.055Z,20.2
2017-05-09T14:03:15.689Z,20.17
2017-05-09T14:04:25.954Z,20.21
2017-05-09T14:05:35.593Z,20.23
2017-05-09T14:06:45.863Z,20.16
2017-05-09T14:07:55.809Z,20.1
2017-05-09T14:09:05.458Z,20.13
2017-05-09T14:10:15.726Z,20.11
2017-05-09T14:11:25.683Z,20.21
2017-05-09T14:12:35.318Z,20.14
2017-05-09T14:13:45.267Z,20.24
2017-05-09T14:14:55.529Z,20.11
2017-05-09T14:16:05.532Z,20.11
2017-05-09T14:17:14.863Z,20.14
2017-05-09T14:18:25.175Z,20.18
2017-05-09T14:19:34.815Z,20.26
2017-05-09T14:20:44.766Z,20.21
2017-05-09T14:21:55.027Z,20.24
2017-05-09T14:23:04.975Z,20.29
2017-05-09T14:24:14.931Z,20.26
2017-05-09T14:25:25.193Z,20.32
2017-05-09T14:26:34.827Z,20.23
2017-05-09T14:27:44.782Z,20.32
2017-05-09T14:28:54.736Z,20.36
2017-05-09T14:30:05.002Z,20.28
2017-05-09T14:31:14.635Z,20.31
2017-05-09T14:32:24.267Z,20.31
2017-05-09T14:33:34.223Z,20.31
2017-05-09T14:34:44.175Z,20.31
2017-05-09T14:35:54.439Z,20.32
2017-05-09T14:37:04.713Z,20.33
2017-05-09T14:38:14.664Z,20.32
2017-05-09T14:39:24.926Z,20.32
2017-05-09T14:40:35.195Z,20.29
2017-05-09T14:41:44.517Z,20.33
2017-05-09T14:42:54.480Z,20.36
2017-05-09T14:44:04.453Z,20.35
2017-05-09T14:45:13.811Z,20.32
2017-05-09T14:46:23.805Z,20.32
2017-05-09T14:47:34.069Z,20.32
2017-05-09T14:48:43.710Z,20.35
2017-05-09T14:49:53.980Z,20.28
2017-05-09T14:51:04.252Z,20.36
2017-05-09T14:52:13.888Z,20.38
2017-05-09T14:53:23.850Z,20.36
2017-05-09T14:54:33.533Z,20.36
2017-05-09T14:55:43.801Z,20.39
2017-05-09T14:56:54.061Z,20.38
2017-05-09T14:58:04.323Z,20.38
2017-05-09T14:59:14.275Z,20.38
2017-05-09T15:00:24.233Z,20.39
2017-05-09T15:01:34.178Z,20.39
2017-05-09T15:02:43.816Z,20.35